Childress Municipal Airport
KCDS : rendu visible

Aérodrome :











RETROUVEZ-NOUS SUR...

 
LOGIN :

S'inscrire | Disclaimer

   EN    FR    IT 

 









Légende :    VFR   VFR Marginal   IFR   IFR Intensif   IFR Très Intensif
Visi : 
Plafond : 
>= 8 km
>= 3000ft
5 à 8 km
1000 à 3000 ft
1500m à 5 km
500 à 1000 ft
800 à 1500m
200 à 500 ft
< 800m
< 200 ft
Symboles :   Orages  Brouillard  Fortes neiges  Fortes précipitations  Vent > 20 kt






- Altitude de l'aérodrome : 1954 ft


KCDS - Childress Municipal

DERNIER METAR :
  • 062353Z AUTO 17014KT 10SM CLR 23/14 A2986 RMK AO2 SLP095 T02280139 10272 20228 55005

METARs EXPIRÉS :
  • 062253Z AUTO 18019G23KT 10SM CLR 26/13 A2986 RMK AO2 SLP090 T02610128
  • 062153Z AUTO 20015KT 10SM CLR 27/14 A2987 RMK AO2 SLP096 T02670139

TAF KCDS
Valide du 07 à 00h jusqu'au 08 à 00h UTC


062329Z 0700/0724 18015KT P6SM BKN250
FM070700 22008KT 6SM BR FEW250
FM071300 27011KT P6SM FEW250



MET'MAP, la Météo Aéronautique d'un coup d'oeil ! - Copyright ORBIFLY Décembre 2007 - Disclaimer

ORBIFLY MET'MAP TEAM :

Programmation & Développement : Alexandra Zaïnal
Sur une idée originale de : Baudouin d'Aumeries
Assistance à la programmation : Marc-Olivier Méhu
Soutien technique & logistique : Manuel Goepfert

Contact : metmap@orbifly.com




SOURCES & CREDITS :

   NOAA       Earth
Advisory